Time;durP1;ratioP1;P1;durP2;ratioP2;P2;SDS_P1;SDS_P2;PMS_P1;PMS_P2;Temp;Humidity;BMP_temperature;BMP_pressure;BME280_temperature;BME280_humidity;BME280_pressure;Samples;Min_cycle;Max_cycle;Signal;HPM_P1;HPM_P2
2021/05/21 00:01:56;;;;;;;22.70;1.80;;;14.00;99.90;;;;;;5069483;28;20028;-52
2021/05/21 00:04:22;;;;;;;3.17;1.48;;;14.00;99.90;;;;;;5069451;28;20733;-56
2021/05/21 00:06:47;;;;;;;2.03;1.17;;;14.10;99.90;;;;;;5070272;28;20043;-53
2021/05/21 00:09:14;;;;;;;6.30;1.30;;;14.10;99.90;;;;;;5066491;28;20112;-52
2021/05/21 00:11:39;;;;;;;5.30;2.15;;;14.10;99.90;;;;;;5067888;28;20154;-52
2021/05/21 00:14:05;;;;;;;3.22;1.17;;;14.10;99.90;;;;;;5069765;28;20104;-51
2021/05/21 00:16:30;;;;;;;4.85;1.17;;;14.10;99.90;;;;;;5070193;28;20028;-55
2021/05/21 00:18:56;;;;;;;6.53;1.00;;;14.10;99.90;;;;;;5068676;28;20032;-54
2021/05/21 00:21:22;;;;;;;2.25;0.80;;;14.10;99.90;;;;;;5068140;28;20429;-52
2021/05/21 00:23:47;;;;;;;2.65;1.30;;;14.10;99.90;;;;;;5067896;28;20043;-54
2021/05/21 00:26:13;;;;;;;4.53;1.00;;;14.00;99.90;;;;;;5069036;28;20032;-54
2021/05/21 00:28:38;;;;;;;1.95;0.70;;;14.00;99.90;;;;;;5065712;28;20506;-53
2021/05/21 00:31:04;;;;;;;3.58;1.05;;;14.00;99.90;;;;;;5065338;28;20486;-54
2021/05/21 00:33:30;;;;;;;2.35;0.88;;;14.00;99.90;;;;;;5067626;28;20028;-56
2021/05/21 00:35:55;;;;;;;4.05;0.93;;;13.90;99.90;;;;;;5066340;28;20024;-52
2021/05/21 00:38:21;;;;;;;1.95;0.90;;;13.90;99.90;;;;;;5067101;28;20028;-52
2021/05/21 00:40:47;;;;;;;2.80;1.02;;;13.90;99.90;;;;;;5068993;28;20437;-55
2021/05/21 00:43:16;;;;;;;2.45;0.82;;;13.80;99.90;;;;;;5069281;28;20086;-54
2021/05/21 00:45:42;;;;;;;3.78;1.35;;;13.80;99.90;;;;;;5069126;28;20556;-51
2021/05/21 00:48:07;;;;;;;3.60;0.80;;;13.80;99.90;;;;;;5065792;28;20028;-52
2021/05/21 00:50:33;;;;;;;6.93;1.20;;;13.80;99.90;;;;;;5069138;28;20036;-55
2021/05/21 00:52:59;;;;;;;2.40;1.30;;;13.70;99.90;;;;;;5069245;28;20028;-55
2021/05/21 00:55:25;;;;;;;3.88;1.30;;;13.70;99.90;;;;;;5068911;28;20475;-54
2021/05/21 00:57:51;;;;;;;7.72;1.73;;;13.80;99.90;;;;;;5069192;28;20047;-56
2021/05/21 01:00:16;;;;;;;2.83;1.10;;;13.80;99.90;;;;;;5069628;28;20016;-54
2021/05/21 01:02:42;;;;;;;7.35;1.73;;;13.80;99.90;;;;;;5069127;28;20429;-53
2021/05/21 01:05:09;;;;;;;3.42;1.20;;;13.80;99.90;;;;;;5069363;28;20036;-54
2021/05/21 01:07:35;;;;;;;14.52;1.38;;;13.90;99.90;;;;;;5061546;28;20035;-51
2021/05/21 01:10:00;;;;;;;3.72;1.30;;;13.90;99.90;;;;;;5068924;28;20066;-55
2021/05/21 01:12:26;;;;;;;5.70;1.30;;;13.90;99.90;;;;;;5064218;28;20036;-53
2021/05/21 01:14:54;;;;;;;3.42;1.42;;;13.90;99.90;;;;;;5063096;28;20052;-55
2021/05/21 01:17:21;;;;;;;3.08;1.10;;;14.00;99.90;;;;;;5064869;28;20494;-55
2021/05/21 01:19:48;;;;;;;2.08;1.25;;;13.90;99.90;;;;;;5067615;28;20047;-56
2021/05/21 01:22:14;;;;;;;4.63;1.45;;;13.90;99.90;;;;;;5064322;28;20547;-53
2021/05/21 01:24:40;;;;;;;4.28;1.25;;;13.90;99.90;;;;;;5067692;28;20033;-55
2021/05/21 01:27:08;;;;;;;9.32;1.52;;;13.90;99.90;;;;;;5068392;28;20034;-55
2021/05/21 01:29:34;;;;;;;2.75;1.27;;;13.90;99.90;;;;;;5066971;28;20406;-55
2021/05/21 01:32:00;;;;;;;3.90;1.70;;;13.80;99.90;;;;;;5069443;28;20029;-56
2021/05/21 01:34:25;;;;;;;1.45;0.95;;;13.80;99.90;;;;;;5067572;28;20550;-52
2021/05/21 01:36:51;;;;;;;4.68;1.95;;;13.80;99.90;;;;;;5064630;28;20560;-53
2021/05/21 01:39:17;;;;;;;10.73;2.05;;;13.80;99.90;;;;;;5068556;28;20046;-55
2021/05/21 01:41:42;;;;;;;1.20;1.10;;;13.80;99.90;;;;;;5065202;28;20033;-57
2021/05/21 01:44:10;;;;;;;2.63;0.95;;;13.80;99.90;;;;;;5071022;28;20021;-52
2021/05/21 01:46:37;;;;;;;4.22;1.17;;;13.80;99.90;;;;;;5072605;28;20074;-52
2021/05/21 01:49:04;;;;;;;4.88;1.05;;;13.70;99.90;;;;;;5069214;28;20041;-55
2021/05/21 01:51:30;;;;;;;4.72;1.30;;;13.70;99.90;;;;;;5071881;28;20031;-55
2021/05/21 01:54:16;;;;;;;3.63;1.00;;;13.70;99.90;;;;;;5072149;28;20060;-54
2021/05/21 01:56:43;;;;;;;3.28;1.10;;;13.70;99.90;;;;;;5071834;28;20036;-55
2021/05/21 01:59:08;;;;;;;4.78;1.00;;;13.70;99.90;;;;;;5072303;28;20082;-53
2021/05/21 02:01:34;;;;;;;2.95;0.80;;;13.70;99.90;;;;;;5072040;28;20037;-52
2021/05/21 02:04:00;;;;;;;3.90;1.10;;;13.70;99.90;;;;;;5072184;28;20074;-57
2021/05/21 02:06:28;;;;;;;4.57;1.10;;;13.70;99.90;;;;;;5071856;28;20024;-53
2021/05/21 02:08:54;;;;;;;3.33;0.80;;;13.60;99.90;;;;;;5069894;28;20028;-55
2021/05/21 02:11:19;;;;;;;2.90;1.23;;;13.60;99.90;;;;;;5070325;28;20047;-55
2021/05/21 02:13:45;;;;;;;3.30;1.00;;;13.70;99.90;;;;;;5069870;28;20526;-52
2021/05/21 02:16:11;;;;;;;4.45;0.90;;;13.60;99.90;;;;;;5071803;28;20433;-54
2021/05/21 02:18:37;;;;;;;1.77;1.02;;;13.60;99.90;;;;;;5072256;28;20096;-54
2021/05/21 02:21:04;;;;;;;2.58;0.85;;;13.60;99.90;;;;;;5071557;28;20040;-55
2021/05/21 02:23:29;;;;;;;2.15;0.90;;;13.60;99.90;;;;;;5067748;28;20036;-54
2021/05/21 02:25:55;;;;;;;0.90;0.75;;;13.60;99.90;;;;;;5069107;28;20398;-52
2021/05/21 02:28:20;;;;;;;5.63;1.38;;;13.60;99.90;;;;;;5072063;28;20552;-53
2021/05/21 02:30:46;;;;;;;2.17;1.00;;;13.70;99.90;;;;;;5070421;28;20045;-52
2021/05/21 02:33:11;;;;;;;1.67;0.90;;;13.70;99.90;;;;;;5068368;28;20099;-55
2021/05/21 02:35:37;;;;;;;4.80;1.10;;;13.70;99.90;;;;;;5071687;28;20025;-54
2021/05/21 02:38:02;;;;;;;2.80;1.10;;;13.70;99.90;;;;;;5070487;28;20028;-53
2021/05/21 02:40:28;;;;;;;1.98;0.95;;;13.60;99.90;;;;;;5070631;28;20033;-54
2021/05/21 02:42:55;;;;;;;2.72;0.82;;;13.60;99.90;;;;;;5071380;28;20032;-56
2021/05/21 02:45:20;;;;;;;4.15;0.90;;;13.60;99.90;;;;;;5071504;28;20098;-55
2021/05/21 02:47:46;;;;;;;8.50;1.23;;;13.60;99.90;;;;;;5070588;28;20417;-53
2021/05/21 02:50:11;;;;;;;2.90;0.80;;;13.50;99.90;;;;;;5071324;28;20078;-54
2021/05/21 02:52:37;;;;;;;2.47;0.90;;;13.50;99.90;;;;;;5067591;28;20028;-56
2021/05/21 02:55:04;;;;;;;2.85;1.40;;;13.50;99.90;;;;;;5070018;28;20032;-52
2021/05/21 02:57:30;;;;;;;2.45;1.00;;;13.40;99.90;;;;;;5067924;28;20082;-53
2021/05/21 02:59:56;;;;;;;2.85;1.35;;;13.30;99.90;;;;;;5071386;28;20461;-56
2021/05/21 03:02:22;;;;;;;9.13;1.10;;;13.30;99.90;;;;;;5067540;28;20406;-56
2021/05/21 03:04:48;;;;;;;2.45;0.95;;;13.30;99.90;;;;;;5070593;28;20070;-53
2021/05/21 03:07:14;;;;;;;4.85;1.08;;;13.30;99.90;;;;;;5069045;28;20063;-53
2021/05/21 03:09:40;;;;;;;2.63;1.00;;;13.20;99.90;;;;;;5070708;28;20483;-54
2021/05/21 03:12:06;;;;;;;2.67;0.90;;;13.10;99.90;;;;;;5069595;28;20222;-52
2021/05/21 03:14:32;;;;;;;4.47;1.20;;;13.10;99.90;;;;;;5068796;28;20035;-56
2021/05/21 03:16:59;;;;;;;6.50;1.10;;;13.10;99.90;;;;;;5068808;28;20898;-52
2021/05/21 03:19:24;;;;;;;4.60;1.00;;;13.10;99.90;;;;;;5068565;28;20051;-54
2021/05/21 03:21:50;;;;;;;4.38;1.48;;;13.00;99.90;;;;;;5070256;28;20506;-55
2021/05/21 03:24:15;;;;;;;6.75;1.38;;;13.00;99.90;;;;;;5069896;28;20020;-55
2021/05/21 03:26:41;;;;;;;4.25;1.20;;;12.90;99.90;;;;;;5070917;28;20041;-56
2021/05/21 03:29:07;;;;;;;2.65;1.20;;;12.90;99.90;;;;;;5068198;28;20032;-52
2021/05/21 03:31:32;;;;;;;4.00;1.45;;;12.80;99.90;;;;;;5067673;28;20029;-52
2021/05/21 03:33:58;;;;;;;3.53;2.05;;;12.80;99.90;;;;;;5069109;28;20559;-53
2021/05/21 03:36:23;;;;;;;6.50;2.13;;;12.80;99.90;;;;;;5070888;28;20108;-55
2021/05/21 03:38:49;;;;;;;3.95;1.67;;;12.80;99.90;;;;;;5068721;28;20044;-55
2021/05/21 03:41:14;;;;;;;3.85;1.50;;;12.80;99.90;;;;;;5069605;28;20063;-55
2021/05/21 03:43:40;;;;;;;4.03;1.60;;;12.70;99.90;;;;;;5069763;28;20056;-56
2021/05/21 03:46:06;;;;;;;7.40;1.77;;;12.60;99.90;;;;;;5070596;28;20108;-52
2021/05/21 03:48:31;;;;;;;4.00;1.85;;;12.50;99.90;;;;;;5070257;28;20032;-51
2021/05/21 03:50:57;;;;;;;8.80;1.88;;;12.50;99.90;;;;;;5069822;28;20040;-53
2021/05/21 03:53:22;;;;;;;4.30;1.80;;;12.40;99.90;;;;;;5069988;28;20035;-51
2021/05/21 03:55:48;;;;;;;4.70;1.63;;;12.40;99.90;;;;;;5069489;28;20032;-52
2021/05/21 03:58:14;;;;;;;7.15;1.73;;;12.30;99.90;;;;;;5065369;28;20114;-54
2021/05/21 04:00:39;;;;;;;4.72;1.80;;;12.30;99.90;;;;;;5068456;28;20043;-55
2021/05/21 04:03:06;;;;;;;5.15;1.63;;;12.20;99.90;;;;;;5067404;28;20090;-55
2021/05/21 04:05:33;;;;;;;5.95;1.88;;;12.20;99.90;;;;;;5066899;28;20035;-56
2021/05/21 04:07:58;;;;;;;7.65;1.73;;;12.10;99.90;;;;;;5069793;28;20101;-53
2021/05/21 04:10:25;;;;;;;5.80;1.80;;;12.00;99.90;;;;;;5067851;28;20032;-60
2021/05/21 04:12:51;;;;;;;8.38;1.85;;;12.00;99.90;;;;;;5068931;28;20063;-54
2021/05/21 04:15:17;;;;;;;5.65;1.65;;;11.90;99.90;;;;;;5069713;28;20056;-55
2021/05/21 04:17:42;;;;;;;4.68;1.63;;;11.90;99.90;;;;;;5069241;28;20036;-54
2021/05/21 04:20:09;;;;;;;5.78;1.98;;;11.80;99.90;;;;;;5069396;28;20028;-53
2021/05/21 04:22:34;;;;;;;6.57;1.80;;;11.80;99.90;;;;;;5069490;28;20119;-53
2021/05/21 04:25:00;;;;;;;6.68;1.98;;;11.80;99.90;;;;;;5069592;28;20108;-52
2021/05/21 04:27:26;;;;;;;6.22;1.70;;;11.70;99.90;;;;;;5069809;28;20074;-52
2021/05/21 04:29:51;;;;;;;11.40;2.83;;;11.70;99.90;;;;;;5068554;28;20402;-53
2021/05/21 04:32:17;;;;;;;8.23;2.47;;;11.70;99.90;;;;;;5069919;28;20539;-53
2021/05/21 04:34:42;;;;;;;10.80;2.13;;;11.70;99.90;;;;;;5065107;28;21274;-53
2021/05/21 04:37:08;;;;;;;9.05;2.67;;;11.70;99.90;;;;;;5069073;28;20703;-53
2021/05/21 04:39:34;;;;;;;8.57;2.50;;;11.60;99.90;;;;;;5066881;28;20043;-54
2021/05/21 04:41:59;;;;;;;5.65;2.45;;;11.60;99.90;;;;;;5066818;28;20075;-56
2021/05/21 04:44:25;;;;;;;13.18;3.22;;;11.60;99.90;;;;;;5068788;28;20653;-52
2021/05/21 04:46:50;;;;;;;12.45;3.30;;;11.60;99.90;;;;;;5069435;28;20115;-51
2021/05/21 04:49:32;;;;;;;7.07;2.10;;;11.60;99.90;;;;;;5064025;28;20032;-52
2021/05/21 04:52:02;;;;;;;14.27;3.72;;;11.60;99.90;;;;;;5068023;28;20029;-52
2021/05/21 04:54:28;;;;;;;9.32;2.90;;;11.70;99.90;;;;;;5067000;28;20025;-51
2021/05/21 04:56:54;;;;;;;16.10;2.55;;;11.80;99.90;;;;;;5068821;28;20021;-54
2021/05/21 04:59:20;;;;;;;8.93;3.00;;;11.90;99.90;;;;;;5067785;28;20037;-52
2021/05/21 05:01:46;;;;;;;9.43;2.90;;;12.00;99.90;;;;;;5068679;28;20055;-54
2021/05/21 05:04:11;;;;;;;21.67;4.13;;;12.10;99.90;;;;;;5065527;28;20059;-54
2021/05/21 05:06:37;;;;;;;8.32;2.33;;;12.30;99.90;;;;;;5068546;28;20162;-52
2021/05/21 05:09:03;;;;;;;4.55;1.63;;;12.40;99.90;;;;;;5067828;28;20029;-54
2021/05/21 05:11:29;;;;;;;7.22;1.58;;;12.50;99.90;;;;;;5064913;28;20137;-54
2021/05/21 05:13:54;;;;;;;5.32;1.40;;;12.70;99.90;;;;;;5065131;28;20023;-57
2021/05/21 05:16:20;;;;;;;10.38;2.88;;;12.80;99.90;;;;;;5068543;28;20048;-53
2021/05/21 05:18:48;;;;;;;8.07;1.45;;;12.90;99.90;;;;;;5068995;28;20060;-52
2021/05/21 05:21:14;;;;;;;3.92;1.55;;;13.00;99.90;;;;;;5067346;28;20059;-54
2021/05/21 05:23:39;;;;;;;12.23;1.85;;;13.10;99.90;;;;;;5069324;28;20029;-55
2021/05/21 05:26:05;;;;;;;6.82;1.83;;;13.10;99.90;;;;;;5071452;28;20024;-54
2021/05/21 05:28:30;;;;;;;6.40;1.73;;;13.20;99.90;;;;;;5072381;28;20185;-52
2021/05/21 05:30:56;;;;;;;9.55;1.95;;;13.30;99.90;;;;;;5068110;28;20032;-52
2021/05/21 05:33:22;;;;;;;8.20;2.08;;;13.40;99.90;;;;;;5070047;28;20021;-54
2021/05/21 05:35:47;;;;;;;12.27;1.80;;;13.50;99.90;;;;;;5071314;28;20096;-56
2021/05/21 05:38:13;;;;;;;14.10;1.75;;;13.50;99.90;;;;;;5071747;28;20056;-54
2021/05/21 05:40:38;;;;;;;5.00;1.38;;;13.50;99.90;;;;;;5070679;28;20090;-56
2021/05/21 05:43:04;;;;;;;4.22;1.50;;;13.60;99.90;;;;;;5072011;28;20032;-55
2021/05/21 05:45:29;;;;;;;5.38;1.08;;;13.60;99.90;;;;;;5066577;28;20501;-56
2021/05/21 05:47:55;;;;;;;7.70;1.38;;;13.60;99.90;;;;;;5072734;28;20036;-55
2021/05/21 05:50:21;;;;;;;2.20;0.90;;;13.70;99.90;;;;;;5072364;28;20032;-53
2021/05/21 05:52:46;;;;;;;7.00;1.13;;;13.70;99.90;;;;;;5072158;28;20024;-56
2021/05/21 05:55:12;;;;;;;2.97;1.40;;;13.70;99.90;;;;;;5070854;28;20024;-54
2021/05/21 05:57:38;;;;;;;7.30;1.30;;;13.70;99.90;;;;;;5069847;28;20032;-52
2021/05/21 06:00:05;;;;;;;1.88;1.00;;;13.80;99.90;;;;;;5069679;28;20025;-54
2021/05/21 06:02:30;;;;;;;5.75;1.65;;;13.80;99.90;;;;;;5072138;28;20086;-56
2021/05/21 06:04:57;;;;;;;3.22;1.10;;;13.90;99.90;;;;;;5068108;28;20957;-56
2021/05/21 06:07:22;;;;;;;5.38;1.10;;;13.90;99.90;;;;;;5071759;28;20032;-53
2021/05/21 06:09:48;;;;;;;3.42;1.08;;;14.00;99.90;;;;;;5069089;28;21805;-55
2021/05/21 06:12:14;;;;;;;3.30;0.95;;;14.10;99.90;;;;;;5072266;28;20091;-56
2021/05/21 06:14:39;;;;;;;4.93;1.20;;;14.20;99.90;;;;;;5071449;28;20116;-54
2021/05/21 06:17:05;;;;;;;4.57;0.90;;;14.30;99.90;;;;;;5065084;28;20021;-53
2021/05/21 06:19:30;;;;;;;6.95;1.25;;;14.30;99.90;;;;;;5064098;28;20486;-52
2021/05/21 06:21:56;;;;;;;6.03;1.10;;;14.40;99.90;;;;;;5066797;28;20028;-56
2021/05/21 06:24:22;;;;;;;4.95;1.30;;;14.40;99.90;;;;;;5072390;28;20052;-53
2021/05/21 06:29:31;;;;;;;5.88;1.25;;;14.30;99.90;;;;;;5062448;28;20509;-53
2021/05/21 06:31:57;;;;;;;2.22;0.80;;;14.30;99.90;;;;;;5070912;28;20064;-57
2021/05/21 06:34:22;;;;;;;8.20;1.23;;;14.40;99.90;;;;;;5065013;28;20027;-51
2021/05/21 06:36:48;;;;;;;5.07;1.23;;;14.50;99.90;;;;;;5069507;28;20050;-51
2021/05/21 06:39:14;;;;;;;3.92;1.35;;;14.40;99.90;;;;;;5070973;28;20036;-51
2021/05/21 06:41:39;;;;;;;6.82;1.30;;;14.50;99.90;;;;;;5068896;28;20039;-52
2021/05/21 06:44:05;;;;;;;3.97;1.45;;;14.60;99.90;;;;;;5071949;28;20025;-56
2021/05/21 06:46:30;;;;;;;5.32;2.10;;;14.70;99.90;;;;;;5070995;28;20064;-54
2021/05/21 06:48:56;;;;;;;3.60;1.15;;;14.70;99.90;;;;;;5071430;28;20070;-56
2021/05/21 06:51:23;;;;;;;7.07;2.08;;;14.70;99.90;;;;;;5064092;28;20037;-53
2021/05/21 06:53:48;;;;;;;7.35;1.45;;;14.80;99.90;;;;;;5069589;28;20028;-55
2021/05/21 06:56:15;;;;;;;6.80;1.75;;;14.80;99.90;;;;;;5071321;28;20035;-55
2021/05/21 06:58:41;;;;;;;9.18;1.90;;;14.90;99.90;;;;;;5071070;28;20070;-53
2021/05/21 07:01:07;;;;;;;6.10;1.58;;;14.90;99.90;;;;;;5064464;28;20436;-54
2021/05/21 07:03:32;;;;;;;5.68;1.55;;;15.00;99.90;;;;;;5067222;28;20024;-52
2021/05/21 07:05:58;;;;;;;9.77;1.63;;;15.00;99.90;;;;;;5066810;28;20036;-53
2021/05/21 07:08:24;;;;;;;5.78;1.80;;;15.10;99.90;;;;;;5070183;28;20024;-52
2021/05/21 07:10:50;;;;;;;11.63;1.55;;;15.10;99.90;;;;;;5070933;28;20102;-55
2021/05/21 07:13:17;;;;;;;6.85;1.65;;;15.20;99.90;;;;;;5065953;28;20083;-51
2021/05/21 07:15:44;;;;;;;6.10;1.13;;;15.30;99.90;;;;;;5070949;28;20013;-52
2021/05/21 07:18:10;;;;;;;6.85;1.35;;;15.40;99.90;;;;;;5071816;28;20089;-51
2021/05/21 07:20:36;;;;;;;12.63;1.67;;;15.40;99.90;;;;;;5064156;28;20306;-54
2021/05/21 07:23:02;;;;;;;8.60;1.55;;;15.30;99.90;;;;;;5067986;28;20081;-57
2021/05/21 07:25:28;;;;;;;3.85;1.00;;;15.30;99.90;;;;;;5066600;28;20041;-52
2021/05/21 07:27:54;;;;;;;8.18;1.42;;;15.20;99.90;;;;;;5070453;28;20032;-52
2021/05/21 07:30:20;;;;;;;6.93;1.73;;;15.20;99.90;;;;;;5065191;28;20470;-54
2021/05/21 07:32:46;;;;;;;4.68;1.15;;;15.10;99.90;;;;;;5067774;28;20051;-55
2021/05/21 07:35:12;;;;;;;9.02;1.70;;;15.00;99.90;;;;;;5068164;28;20028;-55
2021/05/21 07:37:38;;;;;;;7.00;1.23;;;14.90;99.90;;;;;;5070402;28;20036;-53
2021/05/21 07:40:06;;;;;;;7.18;1.40;;;15.00;99.90;;;;;;5068974;28;20029;-51
2021/05/21 07:42:36;;;;;;;6.40;1.20;;;15.00;99.90;;;;;;5070541;28;20108;-53
2021/05/21 07:45:01;;;;;;;7.63;1.88;;;15.00;99.90;;;;;;5065698;28;20119;-53
2021/05/21 07:47:27;;;;;;;9.93;1.70;;;15.00;99.90;;;;;;5066739;28;20618;-53
2021/05/21 07:49:52;;;;;;;8.18;1.67;;;15.00;99.90;;;;;;5066307;28;20462;-53
2021/05/21 07:52:18;;;;;;;12.30;1.55;;;15.00;99.90;;;;;;5067950;28;20024;-56
2021/05/21 07:54:43;;;;;;;7.90;1.35;;;15.00;99.90;;;;;;5069838;28;20055;-56
2021/05/21 07:57:11;;;;;;;9.77;1.00;;;15.10;99.90;;;;;;5062381;28;20478;-54
2021/05/21 07:59:37;;;;;;;5.00;1.23;;;15.30;99.90;;;;;;5062018;28;20025;-54
2021/05/21 08:02:03;;;;;;;4.40;1.30;;;15.50;99.90;;;;;;5067693;28;20043;-56
2021/05/21 08:04:28;;;;;;;8.82;1.50;;;15.60;99.90;;;;;;5066840;28;20036;-56
2021/05/21 08:06:54;;;;;;;8.45;1.40;;;15.70;99.90;;;;;;5066025;28;20395;-54
2021/05/21 08:09:20;;;;;;;5.63;1.30;;;15.80;99.90;;;;;;5067015;28;20047;-52
2021/05/21 08:11:45;;;;;;;6.15;1.10;;;15.80;99.90;;;;;;5068370;28;20024;-55
2021/05/21 08:14:11;;;;;;;8.07;1.25;;;15.90;99.90;;;;;;5069892;28;20078;-54
2021/05/21 08:16:38;;;;;;;5.70;1.25;;;16.00;99.90;;;;;;5068214;28;20063;-54
2021/05/21 08:19:04;;;;;;;6.00;1.38;;;16.10;99.90;;;;;;5064917;28;20081;-54
2021/05/21 08:21:30;;;;;;;13.95;2.05;;;16.00;99.90;;;;;;5068543;28;20033;-52
2021/05/21 08:23:55;;;;;;;10.45;1.70;;;15.40;99.90;;;;;;5066175;28;20429;-53
2021/05/21 08:26:27;;;;;;;9.23;1.55;;;15.20;99.90;;;;;;5046847;28;20032;-57
2021/05/21 08:28:54;;;;;;;11.93;1.77;;;15.20;99.90;;;;;;5066179;28;20028;-56
2021/05/21 08:31:20;;;;;;;10.15;1.52;;;15.10;99.90;;;;;;5064976;28;20024;-55
2021/05/21 08:33:47;;;;;;;9.65;1.80;;;15.20;99.90;;;;;;5064803;28;20020;-53
2021/05/21 08:36:13;;;;;;;13.65;2.72;;;15.20;99.90;;;;;;5068349;28;20029;-55
2021/05/21 08:38:45;;;;;;;11.07;1.58;;;15.30;99.90;;;;;;5071010;28;20028;-54
2021/05/21 08:41:18;;;;;;;13.27;1.70;;;15.40;99.90;;;;;;5065781;28;20028;-55
2021/05/21 08:43:48;;;;;;;15.02;2.00;;;15.30;99.90;;;;;;5067172;28;20024;-57
2021/05/21 08:46:14;;;;;;;12.00;1.58;;;15.40;99.90;;;;;;5057447;28;20335;-54
2021/05/21 08:48:41;;;;;;;10.93;1.48;;;15.60;99.90;;;;;;5064784;28;20146;-56
2021/05/21 08:51:10;;;;;;;12.00;1.70;;;15.70;99.90;;;;;;5062554;28;20029;-54
2021/05/21 08:53:40;;;;;;;9.35;1.90;;;15.70;99.90;;;;;;5068009;28;20516;-57
2021/05/21 08:56:07;;;;;;;22.25;2.72;;;15.90;99.90;;;;;;5065206;28;20066;-53
2021/05/21 08:58:33;;;;;;;5.97;1.35;;;15.90;99.90;;;;;;5068037;28;20020;-54
2021/05/21 09:00:59;;;;;;;10.02;1.77;;;15.70;99.90;;;;;;5066546;28;20112;-51
2021/05/21 09:03:29;;;;;;;12.95;2.70;;;15.50;99.90;;;;;;5069262;28;20443;-51
2021/05/21 09:06:22;;;;;;;17.08;2.13;;;15.50;99.90;;;;;;5067218;28;20512;-53
2021/05/21 09:08:56;;;;;;;9.75;1.83;;;15.40;99.90;;;;;;5061015;28;20425;-55
2021/05/21 09:11:39;;;;;;;5.25;1.65;;;15.50;99.90;;;;;;5058531;28;20025;-54
2021/05/21 09:14:14;;;;;;;7.90;1.55;;;15.60;99.90;;;;;;5067706;28;20048;-55
2021/05/21 09:16:44;;;;;;;6.68;1.50;;;15.80;99.90;;;;;;5061754;28;20017;-55
2021/05/21 09:19:13;;;;;;;13.95;1.88;;;16.00;99.90;;;;;;5066053;28;20039;-51
2021/05/21 09:22:10;;;;;;;12.57;2.42;;;15.90;99.90;;;;;;5063414;28;20036;-57
2021/05/21 09:24:45;;;;;;;12.32;1.98;;;16.00;99.90;;;;;;5067434;28;20394;-56
2021/05/21 09:27:12;;;;;;;5.85;1.27;;;16.30;99.90;;;;;;5066601;28;20100;-55
2021/05/21 09:29:53;;;;;;;12.65;2.33;;;16.30;99.90;;;;;;5067906;28;20024;-54
2021/05/21 09:32:27;;;;;;;7.55;1.35;;;16.00;99.90;;;;;;5064725;28;20482;-55
2021/05/21 09:35:10;;;;;;;8.63;1.65;;;16.20;99.90;;;;;;5068433;28;20032;-53
2021/05/21 09:37:48;;;;;;;13.00;2.25;;;16.20;99.90;;;;;;5066069;28;20039;-56
2021/05/21 09:40:21;;;;;;;11.98;1.60;;;16.40;99.90;;;;;;5062938;28;20375;-54
2021/05/21 09:42:51;;;;;;;9.35;1.98;;;16.60;99.90;;;;;;5067464;28;20047;-52
2021/05/21 09:45:22;;;;;;;10.48;1.73;;;16.30;99.90;;;;;;5062174;28;20031;-51
2021/05/21 09:47:54;;;;;;;9.63;1.52;;;16.20;99.90;;;;;;5065271;28;20040;-55
2021/05/21 09:50:30;;;;;;;7.10;1.95;;;16.00;99.90;;;;;;5065496;28;20028;-51
2021/05/21 09:53:01;;;;;;;10.68;1.77;;;16.10;99.90;;;;;;5061425;28;20052;-52
2021/05/21 09:55:32;;;;;;;9.93;1.75;;;16.30;99.90;;;;;;5064087;28;20048;-52
2021/05/21 09:57:58;;;;;;;13.10;2.70;;;16.50;99.90;;;;;;5066932;28;20044;-51
2021/05/21 10:00:24;;;;;;;7.10;1.52;;;17.00;99.90;;;;;;5066415;28;20055;-52
2021/05/21 10:02:50;;;;;;;7.22;1.33;;;17.10;99.90;;;;;;5067506;28;20024;-54
2021/05/21 10:05:16;;;;;;;8.80;1.98;;;17.00;99.90;;;;;;5065228;28;20060;-55
2021/05/21 10:07:42;;;;;;;11.55;1.90;;;16.80;99.90;;;;;;5064811;28;20420;-51
2021/05/21 10:10:09;;;;;;;11.23;1.50;;;16.70;99.90;;;;;;5067630;28;20394;-53
2021/05/21 10:12:35;;;;;;;10.45;2.13;;;17.10;99.90;;;;;;5065282;28;20040;-54
2021/05/21 10:15:01;;;;;;;6.65;1.90;;;16.80;99.90;;;;;;5070835;28;20435;-51
2021/05/21 10:17:28;;;;;;;12.57;2.17;;;16.80;99.90;;;;;;5060050;28;20056;-53
2021/05/21 10:19:55;;;;;;;16.75;2.33;;;17.00;99.90;;;;;;5068539;28;20355;-56
2021/05/21 10:22:36;;;;;;;8.20;2.28;;;17.00;99.90;;;;;;5063311;28;20032;-53
2021/05/21 10:25:15;;;;;;;8.52;1.70;;;17.50;99.90;;;;;;5069237;28;20089;-54
2021/05/21 10:27:43;;;;;;;10.25;1.70;;;17.90;99.90;;;;;;5069985;28;20027;-54
2021/05/21 10:30:10;;;;;;;7.95;1.70;;;17.80;99.90;;;;;;5070375;28;20115;-56
2021/05/21 10:32:36;;;;;;;11.25;2.08;;;18.00;99.90;;;;;;5070440;28;20021;-53
2021/05/21 10:35:18;;;;;;;9.50;1.60;;;18.10;99.90;;;;;;5064729;28;20491;-52
2021/05/21 10:37:45;;;;;;;6.63;1.80;;;18.10;99.90;;;;;;5068819;28;20024;-55
2021/05/21 10:40:21;;;;;;;10.30;2.28;;;18.50;99.90;;;;;;5064671;28;20028;-52
2021/05/21 10:42:49;;;;;;;9.07;1.50;;;18.60;99.90;;;;;;5068681;28;20081;-53
2021/05/21 10:45:25;;;;;;;13.80;2.03;;;18.70;99.90;;;;;;5066987;28;20066;-54
2021/05/21 10:47:59;;;;;;;10.73;1.73;;;18.70;99.90;;;;;;5069754;28;20039;-56
2021/05/21 10:50:39;;;;;;;10.15;1.90;;;18.00;99.90;;;;;;5069145;28;20051;-53
2021/05/21 10:53:08;;;;;;;16.42;2.17;;;18.10;99.90;;;;;;5066448;28;20399;-53
2021/05/21 10:55:43;;;;;;;9.98;1.52;;;18.20;99.90;;;;;;5062356;28;20028;-53
2021/05/21 10:58:35;;;;;;;9.00;2.20;;;18.50;99.90;;;;;;5064270;28;20029;-54
2021/05/21 11:01:07;;;;;;;9.02;1.70;;;18.90;99.90;;;;;;5067647;28;20037;-54
2021/05/21 11:03:55;;;;;;;13.55;1.73;;;18.40;99.90;;;;;;5070018;28;20437;-55
2021/05/21 11:06:22;;;;;;;9.73;1.58;;;18.30;99.50;;;;;;5065064;28;20024;-55
2021/05/21 11:08:48;;;;;;;14.73;2.00;;;18.30;99.00;;;;;;5069349;28;20055;-55
2021/05/21 11:11:14;;;;;;;5.18;1.30;;;18.10;99.30;;;;;;5065934;28;20060;-54
2021/05/21 11:13:40;;;;;;;12.02;2.05;;;17.60;98.10;;;;;;5069469;28;20078;-54
2021/05/21 11:16:13;;;;;;;9.07;1.30;;;18.20;98.30;;;;;;5067200;28;20033;-52
2021/05/21 11:18:48;;;;;;;7.50;1.73;;;18.60;98.30;;;;;;5069754;28;20025;-53
2021/05/21 11:21:18;;;;;;;5.50;2.05;;;18.60;98.10;;;;;;5068376;28;20024;-55
2021/05/21 11:23:47;;;;;;;11.32;2.45;;;18.70;98.10;;;;;;5066373;28;20664;-55
2021/05/21 11:26:13;;;;;;;9.45;1.67;;;18.60;97.60;;;;;;5066164;28;20064;-56
2021/05/21 11:28:46;;;;;;;8.77;1.70;;;19.00;97.20;;;;;;5064691;28;20060;-54
2021/05/21 11:31:22;;;;;;;8.88;1.50;;;18.90;96.50;;;;;;5068200;28;20064;-54
2021/05/21 11:33:48;;;;;;;11.23;1.52;;;18.70;96.40;;;;;;5068072;28;20016;-55
2021/05/21 11:36:14;;;;;;;9.95;1.85;;;19.00;96.90;;;;;;5066127;28;20035;-56
2021/05/21 11:38:42;;;;;;;10.45;1.70;;;18.90;97.80;;;;;;5068552;28;20487;-53
2021/05/21 11:41:09;;;;;;;8.32;1.55;;;18.50;96.30;;;;;;5067119;28;20032;-55
2021/05/21 11:43:43;;;;;;;12.02;1.80;;;18.40;96.60;;;;;;5068803;28;20090;-53
2021/05/21 11:46:15;;;;;;;11.38;2.08;;;18.50;98.30;;;;;;5061972;28;20055;-57
2021/05/21 11:48:42;;;;;;;13.38;1.75;;;18.60;96.00;;;;;;5068551;28;20560;-53
2021/05/21 11:51:14;;;;;;;13.93;1.90;;;18.50;96.70;;;;;;5066083;28;20032;-53
2021/05/21 11:53:47;;;;;;;12.10;1.95;;;18.40;97.30;;;;;;5067594;28;20544;-51
2021/05/21 11:56:12;;;;;;;8.10;2.00;;;18.50;96.90;;;;;;5069370;28;20056;-55
2021/05/21 11:58:38;;;;;;;7.82;1.80;;;19.00;97.20;;;;;;5069751;28;20048;-54
2021/05/21 12:01:05;;;;;;;8.25;1.92;;;19.60;96.90;;;;;;5064167;28;20021;-55
2021/05/21 12:03:38;;;;;;;7.45;1.50;;;20.00;95.50;;;;;;5069170;28;20115;-56
2021/05/21 12:06:04;;;;;;;6.00;1.60;;;20.30;95.10;;;;;;5068048;28;20414;-55
2021/05/21 12:08:31;;;;;;;10.35;2.15;;;20.50;92.90;;;;;;5069547;28;20078;-54
2021/05/21 12:10:58;;;;;;;7.35;1.75;;;20.30;93.40;;;;;;5067204;28;20060;-52
2021/05/21 12:13:29;;;;;;;14.50;2.15;;;19.20;92.80;;;;;;5048395;28;20045;-52
2021/05/21 12:16:15;;;;;;;7.45;2.30;;;19.00;93.10;;;;;;5065271;28;20027;-55
2021/05/21 12:18:41;;;;;;;8.30;1.63;;;19.00;95.10;;;;;;5066658;28;20093;-56
2021/05/21 12:21:07;;;;;;;5.32;1.58;;;18.90;94.20;;;;;;5065278;28;20482;-56
2021/05/21 12:23:38;;;;;;;17.15;2.05;;;18.90;94.00;;;;;;5069195;28;20103;-57
2021/05/21 12:26:05;;;;;;;7.47;1.95;;;18.80;94.80;;;;;;5065459;28;21903;-55
2021/05/21 12:28:33;;;;;;;10.10;1.92;;;18.90;94.80;;;;;;5065860;28;20098;-55
2021/05/21 12:31:05;;;;;;;12.90;2.25;;;19.10;94.30;;;;;;5065891;28;20071;-55
2021/05/21 12:33:36;;;;;;;14.90;1.95;;;19.20;93.20;;;;;;5067179;28;20047;-55
2021/05/21 12:36:11;;;;;;;8.52;1.70;;;19.10;92.90;;;;;;5068361;28;20393;-55
2021/05/21 12:38:38;;;;;;;6.20;1.70;;;19.10;95.30;;;;;;5068005;28;20024;-54
2021/05/21 12:41:04;;;;;;;9.40;1.70;;;19.10;93.20;;;;;;5065214;28;20406;-55
2021/05/21 12:43:31;;;;;;;12.73;2.38;;;19.00;93.20;;;;;;5064603;28;20034;-56
2021/05/21 12:46:06;;;;;;;7.90;1.88;;;18.90;92.80;;;;;;5061120;28;20128;-53
2021/05/21 12:48:39;;;;;;;7.15;1.60;;;18.80;93.40;;;;;;5064666;28;20633;-53
2021/05/21 12:51:21;;;;;;;6.75;1.30;;;18.70;94.40;;;;;;5066368;28;20585;-55